createdAt,value
2023-08-20T00:00:58.963Z,9.00
2023-08-20T00:01:58.966Z,6.90
2023-08-20T00:02:59.026Z,6.80
2023-08-20T00:03:58.997Z,6.40
2023-08-20T00:04:58.947Z,6.10
2023-08-20T00:05:58.984Z,8.60
2023-08-20T00:06:58.963Z,10.40
2023-08-20T00:07:58.911Z,13.20
2023-08-20T00:08:58.904Z,14.50
2023-08-20T00:09:58.885Z,14.90
2023-08-20T00:10:58.910Z,13.30
2023-08-20T00:11:58.875Z,14.60
2023-08-20T00:12:58.930Z,15.70
2023-08-20T00:13:58.864Z,14.60
2023-08-20T00:14:58.845Z,13.60
2023-08-20T00:15:58.891Z,12.20
2023-08-20T00:16:58.837Z,10.40
2023-08-20T00:17:58.906Z,9.40
2023-08-20T00:18:58.827Z,8.80
2023-08-20T00:19:58.828Z,9.60
2023-08-20T00:20:58.829Z,10.90
2023-08-20T00:21:58.796Z,10.80
2023-08-20T00:22:58.793Z,15.80
2023-08-20T00:23:58.792Z,14.20
2023-08-20T00:24:58.816Z,16.60
2023-08-20T00:25:58.850Z,20.70
2023-08-20T00:26:58.770Z,17.50
2023-08-20T00:27:58.783Z,21.20
2023-08-20T00:28:58.751Z,23.20
2023-08-20T00:29:58.763Z,22.30
2023-08-20T00:30:58.746Z,24.70
2023-08-20T00:31:58.788Z,25.10
2023-08-20T00:32:58.773Z,24.40
2023-08-20T00:34:06.586Z,24.30
2023-08-20T00:35:00.720Z,23.20
2023-08-20T00:35:58.705Z,23.90
2023-08-20T00:36:58.678Z,23.50
2023-08-20T00:37:58.685Z,24.10
2023-08-20T00:38:58.981Z,24.30
2023-08-20T00:39:58.658Z,23.60
2023-08-20T00:40:58.674Z,23.40
2023-08-20T00:41:58.645Z,24.50
2023-08-20T00:42:58.649Z,24.20
2023-08-20T00:43:58.655Z,23.30
2023-08-20T00:44:58.681Z,25.20
2023-08-20T00:45:58.680Z,23.10
2023-08-20T00:46:58.611Z,27.00
2023-08-20T00:47:58.683Z,27.70
2023-08-20T00:48:58.644Z,28.40
2023-08-20T00:49:58.586Z,29.90
2023-08-20T00:50:58.607Z,34.40
2023-08-20T00:51:58.577Z,33.20
2023-08-20T00:52:58.644Z,30.40
2023-08-20T00:53:58.559Z,26.90
2023-08-20T00:54:58.558Z,22.90
2023-08-20T00:55:58.541Z,19.20
2023-08-20T00:56:58.567Z,18.70
2023-08-20T00:57:58.602Z,18.80
2023-08-20T00:58:58.514Z,19.20
2023-08-20T00:59:58.517Z,18.40
2023-08-20T01:00:58.544Z,18.50
2023-08-20T01:01:58.526Z,25.50
2023-08-20T01:02:58.534Z,29.00
2023-08-20T01:03:58.487Z,25.20
2023-08-20T01:04:58.543Z,25.20
2023-08-20T01:05:58.476Z,25.00
2023-08-20T01:06:58.485Z,22.70
2023-08-20T01:07:58.466Z,21.60
2023-08-20T01:10:44.066Z,24.00
2023-08-20T01:11:44.092Z,24.10
2023-08-20T01:12:44.064Z,20.30
2023-08-20T01:13:44.058Z,19.30
2023-08-20T01:14:44.063Z,19.00
2023-08-20T01:15:44.128Z,17.60
2023-08-20T01:16:44.050Z,18.30
2023-08-20T01:17:44.082Z,18.90
2023-08-20T01:18:44.035Z,15.50
2023-08-20T01:19:44.042Z,16.80
2023-08-20T01:20:44.021Z,21.10
2023-08-20T01:21:44.019Z,20.30
2023-08-20T01:22:43.997Z,21.20
2023-08-20T01:23:43.990Z,19.70
2023-08-20T01:24:43.978Z,23.60
2023-08-20T01:25:43.988Z,24.30
2023-08-20T01:26:43.961Z,23.00
2023-08-20T01:27:43.962Z,25.30
2023-08-20T01:28:43.994Z,32.70
2023-08-20T01:29:43.948Z,31.60
2023-08-20T01:30:44.006Z,30.50
2023-08-20T01:31:43.935Z,25.30
2023-08-20T01:32:43.942Z,21.40
2023-08-20T01:33:45.045Z,21.20
2023-08-20T01:34:45.082Z,25.90
2023-08-20T01:35:45.049Z,23.40
2023-08-20T01:36:45.015Z,28.20
2023-08-20T01:37:45.017Z,31.60
2023-08-20T01:38:45.019Z,29.30
2023-08-20T01:39:45.023Z,31.60
2023-08-20T01:40:44.977Z,34.30
2023-08-20T01:41:44.994Z,32.10
2023-08-20T01:42:44.974Z,28.70
2023-08-20T01:43:44.965Z,30.60
2023-08-20T01:44:44.989Z,28.10
2023-08-20T01:45:44.968Z,30.10
2023-08-20T01:46:44.937Z,32.70
2023-08-20T01:47:44.959Z,32.20
2023-08-20T01:48:44.938Z,33.10
2023-08-20T01:49:44.954Z,31.80
2023-08-20T01:50:44.921Z,31.10
2023-08-20T01:51:44.909Z,33.50
2023-08-20T01:52:44.902Z,29.80
2023-08-20T01:53:44.916Z,26.20
2023-08-20T01:54:44.878Z,26.50
2023-08-20T01:55:44.883Z,24.60
2023-08-20T01:56:44.879Z,30.90
2023-08-20T01:57:44.858Z,33.10
2023-08-20T01:58:44.911Z,36.80
2023-08-20T01:59:44.853Z,31.10
2023-08-20T02:00:45.913Z,31.00
2023-08-20T02:01:44.877Z,28.70
2023-08-20T02:02:44.908Z,28.50
2023-08-20T02:03:44.850Z,23.00
2023-08-20T02:04:44.827Z,22.40
2023-08-20T02:05:44.828Z,24.30
2023-08-20T02:06:44.793Z,23.50
2023-08-20T02:07:44.803Z,25.00
2023-08-20T02:08:44.774Z,27.70
2023-08-20T02:09:44.777Z,24.10
2023-08-20T02:10:44.767Z,24.90
2023-08-20T02:11:44.797Z,26.40
2023-08-20T02:12:44.775Z,30.30
2023-08-20T02:13:44.728Z,28.50
2023-08-20T02:14:44.779Z,29.80
2023-08-20T02:15:44.723Z,27.90
2023-08-20T02:16:44.799Z,28.20
2023-08-20T02:17:44.764Z,23.20
2023-08-20T02:18:44.698Z,22.50
2023-08-20T02:19:44.686Z,24.30
2023-08-20T02:20:44.695Z,25.50
2023-08-20T02:21:44.719Z,28.60
2023-08-20T02:22:44.677Z,24.10
2023-08-20T02:23:44.682Z,20.70
2023-08-20T02:24:44.664Z,22.50
2023-08-20T02:25:44.655Z,25.20
2023-08-20T02:26:44.668Z,27.10
2023-08-20T02:27:44.635Z,23.40
2023-08-20T02:28:44.634Z,36.20
2023-08-20T02:29:44.618Z,32.80
2023-08-20T02:30:44.671Z,30.90
2023-08-20T02:31:44.618Z,38.10
2023-08-20T02:32:44.697Z,47.40
2023-08-20T02:33:44.597Z,42.10
2023-08-20T02:34:44.587Z,32.70
2023-08-20T02:35:44.799Z,22.80
2023-08-20T02:36:44.565Z,19.80
2023-08-20T02:37:45.595Z,22.00
2023-08-20T02:38:44.555Z,22.40
2023-08-20T02:39:44.578Z,17.80
2023-08-20T02:40:44.567Z,22.40
2023-08-20T02:41:44.572Z,37.00
2023-08-20T02:42:44.545Z,30.20
2023-08-20T02:43:44.532Z,37.90
2023-08-20T02:44:44.945Z,68.90
2023-08-20T02:45:44.698Z,71.90
2023-08-20T02:46:44.502Z,108.10
2023-08-20T02:47:44.532Z,55.60
2023-08-20T02:48:44.488Z,85.10
2023-08-20T02:49:44.493Z,79.90
2023-08-20T02:50:44.473Z,68.90
2023-08-20T02:51:44.461Z,87.20
2023-08-20T02:52:44.478Z,65.00
2023-08-20T02:53:44.466Z,72.80
2023-08-20T02:54:44.482Z,67.30
2023-08-20T02:55:44.456Z,78.20
2023-08-20T02:56:44.425Z,47.30
2023-08-20T02:57:44.468Z,44.40
2023-08-20T02:58:44.471Z,88.20
2023-08-20T02:59:44.445Z,84.20
2023-08-20T03:00:44.408Z,74.20
2023-08-20T03:01:44.445Z,83.20
2023-08-20T03:02:44.443Z,85.20
2023-08-20T03:03:44.415Z,90.00
2023-08-20T03:04:44.374Z,86.20
2023-08-20T03:05:44.376Z,75.40
2023-08-20T03:06:44.389Z,71.90
2023-08-20T03:07:44.362Z,64.50
2023-08-20T03:08:44.378Z,75.10
2023-08-20T03:09:44.351Z,67.70
2023-08-20T03:10:44.333Z,65.40
2023-08-20T03:11:44.322Z,68.30
2023-08-20T03:12:44.342Z,73.90
2023-08-20T03:13:44.320Z,63.40
2023-08-20T03:14:44.288Z,62.10
2023-08-20T03:15:44.334Z,79.00
2023-08-20T03:16:44.279Z,76.70
2023-08-20T03:17:44.432Z,70.60
2023-08-20T03:18:44.271Z,81.30
2023-08-20T03:19:44.363Z,55.40
2023-08-20T03:20:44.271Z,47.60
2023-08-20T03:21:44.243Z,44.50
2023-08-20T03:22:44.331Z,47.80
2023-08-20T03:23:44.230Z,49.20
2023-08-20T03:24:44.242Z,68.00
2023-08-20T03:25:44.243Z,55.60
2023-08-20T03:26:44.212Z,68.20
2023-08-20T03:27:44.234Z,66.90
2023-08-20T03:28:44.195Z,65.60
2023-08-20T03:29:44.188Z,67.90
2023-08-20T03:30:44.174Z,59.00
2023-08-20T03:31:44.190Z,56.70
2023-08-20T03:32:44.172Z,82.50
2023-08-20T03:33:44.180Z,61.00
2023-08-20T03:34:44.137Z,62.50
2023-08-20T03:35:44.183Z,48.50
2023-08-20T03:36:45.070Z,77.10
2023-08-20T03:37:44.117Z,67.70
2023-08-20T03:38:44.169Z,58.20
2023-08-20T03:39:44.103Z,61.50
2023-08-20T03:40:44.127Z,36.40
2023-08-20T03:41:44.082Z,45.80
2023-08-20T03:42:44.090Z,28.00
2023-08-20T03:43:44.077Z,30.50
2023-08-20T03:44:44.079Z,30.00
2023-08-20T03:45:44.107Z,23.10
2023-08-20T03:46:44.195Z,22.60
2023-08-20T03:47:44.081Z,31.50
2023-08-20T03:48:44.129Z,28.50
2023-08-20T03:49:44.058Z,18.20
2023-08-20T03:50:44.047Z,20.90
2023-08-20T03:51:44.023Z,20.70
2023-08-20T03:52:44.001Z,19.20
2023-08-20T03:53:44.018Z,19.70
2023-08-20T03:54:44.027Z,18.20
2023-08-20T03:55:44.009Z,16.60
2023-08-20T03:56:43.990Z,18.20
2023-08-20T03:57:43.968Z,16.70
2023-08-20T03:58:43.957Z,16.50
2023-08-20T03:59:43.984Z,16.80
2023-08-20T04:00:43.942Z,15.20
2023-08-20T04:01:43.944Z,15.30
2023-08-20T04:02:43.936Z,15.80
2023-08-20T04:03:43.968Z,13.90
2023-08-20T04:04:43.925Z,15.30
2023-08-20T04:05:43.905Z,14.70
2023-08-20T04:06:44.043Z,14.70
2023-08-20T04:07:44.048Z,15.10
2023-08-20T04:08:44.258Z,16.40
2023-08-20T04:09:43.876Z,17.50
2023-08-20T04:10:43.902Z,18.30
2023-08-20T04:11:43.863Z,18.90
2023-08-20T04:12:43.884Z,21.70
2023-08-20T04:13:43.875Z,20.20
2023-08-20T04:14:43.846Z,25.50
2023-08-20T04:15:43.839Z,23.80
2023-08-20T04:16:43.824Z,23.30
2023-08-20T04:17:43.869Z,32.60
2023-08-20T04:18:43.834Z,24.30
2023-08-20T04:19:43.805Z,24.00
2023-08-20T04:20:43.800Z,25.60
2023-08-20T04:21:43.811Z,23.50
2023-08-20T04:22:43.806Z,27.70
2023-08-20T04:23:43.793Z,27.40
2023-08-20T04:24:43.863Z,25.60
2023-08-20T04:25:43.781Z,25.60
2023-08-20T04:26:43.746Z,25.00
2023-08-20T04:27:43.774Z,25.80
2023-08-20T04:28:43.735Z,22.20
2023-08-20T04:29:43.725Z,23.40
2023-08-20T04:30:43.744Z,23.10
2023-08-20T04:31:43.733Z,21.90
2023-08-20T04:32:43.762Z,21.80
2023-08-20T04:33:43.732Z,20.80
2023-08-20T04:34:43.705Z,20.40
2023-08-20T04:35:43.704Z,19.80
2023-08-20T04:36:43.744Z,19.40
2023-08-20T04:37:43.705Z,19.80
2023-08-20T04:38:43.782Z,20.00
2023-08-20T04:39:43.668Z,19.00
2023-08-20T04:40:43.660Z,18.70
2023-08-20T04:41:43.672Z,18.70
2023-08-20T04:42:43.648Z,19.80
2023-08-20T04:43:43.634Z,19.10
2023-08-20T04:44:43.638Z,18.60
2023-08-20T04:45:43.651Z,19.00
2023-08-20T04:46:43.682Z,20.80
2023-08-20T04:47:43.636Z,20.40
2023-08-20T04:48:43.616Z,18.10
2023-08-20T04:49:43.641Z,19.00
2023-08-20T04:50:43.604Z,17.20
2023-08-20T04:51:43.576Z,16.80
2023-08-20T04:52:43.585Z,18.50
2023-08-20T04:53:43.582Z,17.60
2023-08-20T04:54:43.552Z,16.30
2023-08-20T04:55:43.605Z,15.30
2023-08-20T04:56:43.564Z,16.30
2023-08-20T04:57:43.575Z,14.90
2023-08-20T04:58:43.582Z,16.00
2023-08-20T04:59:43.623Z,17.20
2023-08-20T05:00:43.673Z,16.40
2023-08-20T05:01:43.578Z,18.00
2023-08-20T05:02:43.713Z,24.60
2023-08-20T05:03:43.554Z,24.30
2023-08-20T05:04:43.500Z,20.80
2023-08-20T05:05:43.474Z,23.40
2023-08-20T05:06:43.479Z,20.00
2023-08-20T05:07:43.448Z,20.80
2023-08-20T05:08:43.439Z,21.40
2023-08-20T05:09:43.460Z,21.30
2023-08-20T05:10:43.424Z,23.40
2023-08-20T05:11:43.481Z,22.10
2023-08-20T05:12:43.432Z,21.60
2023-08-20T05:13:43.563Z,19.70
2023-08-20T05:14:43.732Z,22.30
2023-08-20T05:15:43.398Z,20.70
2023-08-20T05:16:43.428Z,22.70
2023-08-20T05:17:43.397Z,22.80
2023-08-20T05:18:44.398Z,23.60
2023-08-20T05:19:43.360Z,23.10
2023-08-20T05:20:43.342Z,22.60
2023-08-20T05:21:43.367Z,25.50
2023-08-20T05:22:43.335Z,26.30
2023-08-20T05:23:43.359Z,24.70
2023-08-20T05:24:44.273Z,25.10
2023-08-20T05:25:44.159Z,25.60
2023-08-20T05:26:44.046Z,26.00
2023-08-20T05:27:43.666Z,28.00
2023-08-20T05:28:45.773Z,26.50
2023-08-20T05:29:44.101Z,27.00
2023-08-20T05:30:43.465Z,21.60
2023-08-20T05:31:43.850Z,18.80
2023-08-20T05:32:44.231Z,16.70
2023-08-20T05:33:43.500Z,16.00
2023-08-20T05:34:43.749Z,14.70
2023-08-20T05:35:43.311Z,15.10
2023-08-20T05:36:43.484Z,13.10
2023-08-20T05:37:45.094Z,13.30
2023-08-20T05:38:44.661Z,11.80
2023-08-20T05:39:43.489Z,11.00
2023-08-20T05:40:44.590Z,10.30
2023-08-20T05:41:43.314Z,9.60
2023-08-20T05:42:43.992Z,9.90
2023-08-20T05:43:43.205Z,11.90
2023-08-20T05:44:43.323Z,9.80
2023-08-20T05:45:43.951Z,10.90
2023-08-20T05:46:43.479Z,11.70
2023-08-20T05:47:43.223Z,11.20
2023-08-20T05:48:43.386Z,11.40
2023-08-20T05:49:44.080Z,13.20
2023-08-20T05:50:43.177Z,14.30
2023-08-20T05:51:43.949Z,14.60
2023-08-20T05:52:43.203Z,13.50
2023-08-20T05:53:43.111Z,15.60
2023-08-20T05:54:43.116Z,15.10
2023-08-20T05:55:43.241Z,15.60
2023-08-20T05:56:43.351Z,14.40
2023-08-20T05:57:45.881Z,14.80
2023-08-20T05:58:43.081Z,14.70
2023-08-20T05:59:43.076Z,15.40
2023-08-20T06:00:43.102Z,13.70
2023-08-20T06:01:43.129Z,14.40
2023-08-20T06:02:43.333Z,14.50
2023-08-20T06:03:43.522Z,13.30
2023-08-20T06:04:43.052Z,14.90
2023-08-20T06:05:43.140Z,19.10
2023-08-20T06:06:43.272Z,24.50
2023-08-20T06:07:43.017Z,27.80
2023-08-20T06:08:52.125Z,32.80
2023-08-20T06:09:45.044Z,33.30
2023-08-20T06:10:43.012Z,35.40
2023-08-20T06:11:43.599Z,35.80
2023-08-20T06:12:43.103Z,35.20
2023-08-20T06:13:43.033Z,37.10
2023-08-20T06:14:45.079Z,38.50
2023-08-20T06:15:42.962Z,37.80
2023-08-20T06:16:43.030Z,39.00
2023-08-20T06:17:43.011Z,41.10
2023-08-20T06:18:42.932Z,37.20
2023-08-20T06:19:42.954Z,38.30
2023-08-20T06:20:42.929Z,37.00
2023-08-20T06:21:43.000Z,39.20
2023-08-20T06:22:43.536Z,38.60
2023-08-20T06:23:44.716Z,39.00
2023-08-20T06:24:43.951Z,36.10
2023-08-20T06:25:43.116Z,35.90
2023-08-20T06:26:42.923Z,35.10
2023-08-20T06:27:43.187Z,37.50
2023-08-20T06:28:44.335Z,34.60
2023-08-20T06:29:43.766Z,33.10
2023-08-20T06:30:42.840Z,34.50
2023-08-20T06:31:44.056Z,33.50
2023-08-20T06:32:43.159Z,33.60
2023-08-20T06:33:42.988Z,33.50
2023-08-20T06:34:42.857Z,33.50
2023-08-20T06:35:42.804Z,33.90
2023-08-20T06:36:42.829Z,29.10
2023-08-20T06:37:42.823Z,33.00
2023-08-20T06:38:42.810Z,31.10
2023-08-20T06:39:42.773Z,31.90
2023-08-20T06:40:43.015Z,31.40
2023-08-20T06:41:42.879Z,33.10
2023-08-20T06:42:42.984Z,29.70
2023-08-20T06:43:42.744Z,29.50
2023-08-20T06:44:42.767Z,26.40
2023-08-20T06:45:42.755Z,27.20
2023-08-20T06:46:42.726Z,26.70
2023-08-20T06:47:42.796Z,27.40
2023-08-20T06:48:42.712Z,26.80
2023-08-20T06:49:42.728Z,25.80
2023-08-20T06:50:42.732Z,24.80
2023-08-20T06:51:42.712Z,25.00
2023-08-20T06:52:42.818Z,24.70
2023-08-20T06:53:42.695Z,24.40
2023-08-20T06:54:42.671Z,23.50
2023-08-20T06:55:42.668Z,25.00
2023-08-20T06:56:42.707Z,24.60
2023-08-20T06:57:42.660Z,25.20
2023-08-20T06:58:42.649Z,25.10
2023-08-20T06:59:42.636Z,25.80
2023-08-20T07:00:42.641Z,25.40
2023-08-20T07:01:42.681Z,23.10
2023-08-20T07:02:42.649Z,23.90
2023-08-20T07:03:42.623Z,24.40
2023-08-20T07:04:43.757Z,22.80
2023-08-20T07:05:42.621Z,22.30
2023-08-20T07:06:42.793Z,22.60
2023-08-20T07:07:42.588Z,23.10
2023-08-20T07:08:42.602Z,23.00
2023-08-20T07:09:42.571Z,23.20
2023-08-20T07:10:42.618Z,20.80
2023-08-20T07:11:42.560Z,19.70
2023-08-20T07:12:42.550Z,19.60
2023-08-20T07:13:43.464Z,21.30
2023-08-20T07:14:42.669Z,20.70
2023-08-20T07:15:42.576Z,20.20
2023-08-20T07:16:42.530Z,18.20
2023-08-20T07:17:44.352Z,18.60
2023-08-20T07:18:42.491Z,18.80
2023-08-20T07:19:42.533Z,18.50
2023-08-20T07:20:42.519Z,18.80
2023-08-20T07:21:42.490Z,19.40
2023-08-20T07:22:42.475Z,19.50
2023-08-20T07:23:42.477Z,19.20
2023-08-20T07:24:42.564Z,17.70
2023-08-20T07:25:42.458Z,16.80
2023-08-20T07:26:42.878Z,18.00
2023-08-20T07:27:42.438Z,15.70
2023-08-20T07:28:42.443Z,17.90
2023-08-20T07:29:42.487Z,16.70
2023-08-20T07:30:42.971Z,17.20
2023-08-20T07:31:42.444Z,17.60
2023-08-20T07:32:42.476Z,16.60
2023-08-20T07:33:42.441Z,16.30
2023-08-20T07:34:42.392Z,15.00
2023-08-20T07:35:42.411Z,14.20
2023-08-20T07:36:42.387Z,15.10
2023-08-20T07:37:43.412Z,13.30
2023-08-20T07:38:42.468Z,13.70
2023-08-20T07:39:42.360Z,13.80
2023-08-20T07:40:42.359Z,13.70
2023-08-20T07:41:42.365Z,12.50
2023-08-20T07:42:42.373Z,13.60
2023-08-20T07:43:42.348Z,14.30
2023-08-20T07:44:42.342Z,13.10
2023-08-20T07:45:42.388Z,11.30
2023-08-20T07:46:42.343Z,10.70
2023-08-20T07:47:42.394Z,11.40
2023-08-20T07:48:42.321Z,12.00
2023-08-20T07:49:42.288Z,10.30
2023-08-20T07:50:42.295Z,11.20
2023-08-20T07:51:42.285Z,10.90
2023-08-20T07:52:42.288Z,11.70
2023-08-20T07:53:42.273Z,12.00
2023-08-20T07:54:42.254Z,11.20
2023-08-20T07:55:42.247Z,10.20
2023-08-20T07:56:42.250Z,10.90
2023-08-20T07:57:42.260Z,11.60
2023-08-20T07:58:42.240Z,9.80
2023-08-20T07:59:42.240Z,10.20
2023-08-20T08:00:42.990Z,10.10
2023-08-20T08:01:42.238Z,9.50
2023-08-20T08:02:42.770Z,10.80
2023-08-20T08:03:42.321Z,8.30
2023-08-20T08:04:44.156Z,8.00
2023-08-20T08:05:42.182Z,10.00
2023-08-20T08:06:42.209Z,10.40
2023-08-20T08:07:42.166Z,9.80
2023-08-20T08:08:42.197Z,11.90
2023-08-20T08:09:42.147Z,9.10
2023-08-20T08:10:42.172Z,9.90
2023-08-20T08:11:42.190Z,8.70
2023-08-20T08:12:42.114Z,8.10
2023-08-20T08:13:42.192Z,9.40
2023-08-20T08:14:42.164Z,9.70
2023-08-20T08:15:42.126Z,8.50
2023-08-20T08:16:43.535Z,7.30
2023-08-20T08:17:42.100Z,8.00
2023-08-20T08:18:42.103Z,7.20
2023-08-20T08:19:42.073Z,6.80
2023-08-20T08:20:42.073Z,7.70
2023-08-20T08:21:42.068Z,6.70
2023-08-20T08:22:42.053Z,8.20
2023-08-20T08:23:42.027Z,7.40
2023-08-20T08:24:42.059Z,7.00
2023-08-20T08:25:46.005Z,6.60
2023-08-20T08:26:43.046Z,7.60
2023-08-20T08:27:54.341Z,7.30
2023-08-20T08:28:44.034Z,7.20
2023-08-20T08:29:42.022Z,6.00
2023-08-20T08:30:42.030Z,6.10
2023-08-20T08:31:41.982Z,5.90
2023-08-20T08:32:42.004Z,6.10
2023-08-20T08:33:42.011Z,6.80
2023-08-20T08:34:41.988Z,5.80
2023-08-20T08:35:41.939Z,6.30
2023-08-20T08:36:41.951Z,7.50
2023-08-20T08:37:41.961Z,6.50
2023-08-20T08:38:41.955Z,5.40
2023-08-20T08:39:41.919Z,5.80
2023-08-20T08:40:41.972Z,5.70
2023-08-20T08:41:41.907Z,5.90
2023-08-20T08:42:41.908Z,5.10
2023-08-20T08:43:41.921Z,5.10
2023-08-20T08:44:41.881Z,6.30
2023-08-20T08:45:41.862Z,5.50
2023-08-20T08:46:42.906Z,4.90
2023-08-20T08:47:41.914Z,4.00
2023-08-20T08:48:41.873Z,6.60
2023-08-20T08:49:41.852Z,5.20
2023-08-20T08:50:41.861Z,5.40
2023-08-20T08:51:41.841Z,6.20
2023-08-20T08:52:41.855Z,5.40
2023-08-20T08:53:41.843Z,5.50
2023-08-20T08:54:41.810Z,4.60
2023-08-20T08:55:43.692Z,4.80
2023-08-20T08:56:42.835Z,4.90
2023-08-20T08:57:41.830Z,4.20
2023-08-20T08:58:41.831Z,4.80
2023-08-20T08:59:41.829Z,5.30
2023-08-20T09:00:41.832Z,5.40
2023-08-20T09:01:41.813Z,5.60
2023-08-20T09:02:42.025Z,4.50
2023-08-20T09:03:41.765Z,3.80
2023-08-20T09:04:41.771Z,4.30
2023-08-20T09:05:41.749Z,4.60
2023-08-20T09:06:41.773Z,4.60
2023-08-20T09:07:41.731Z,3.70
2023-08-20T09:08:41.709Z,5.00
2023-08-20T09:09:41.706Z,4.60
2023-08-20T09:10:41.713Z,4.90
2023-08-20T09:11:41.724Z,4.30
2023-08-20T09:12:41.716Z,4.50
2023-08-20T09:13:41.697Z,4.50
2023-08-20T09:14:41.683Z,4.00
2023-08-20T09:15:42.111Z,4.90
2023-08-20T09:16:41.753Z,4.50
2023-08-20T09:17:41.741Z,4.90
2023-08-20T09:18:41.672Z,4.80
2023-08-20T09:19:41.646Z,4.10
2023-08-20T09:20:41.662Z,4.20
2023-08-20T09:21:41.638Z,3.30
2023-08-20T09:22:41.625Z,3.80
2023-08-20T09:23:41.617Z,4.10
2023-08-20T09:24:41.615Z,4.90
2023-08-20T09:25:41.649Z,4.10
2023-08-20T09:26:41.592Z,4.00
2023-08-20T09:27:41.597Z,3.40
2023-08-20T09:28:41.577Z,2.60
2023-08-20T09:29:41.617Z,2.80
2023-08-20T09:30:41.622Z,3.30
2023-08-20T09:31:41.591Z,3.40
2023-08-20T09:32:41.592Z,2.70
2023-08-20T09:33:41.542Z,3.30
2023-08-20T09:34:41.573Z,3.20
2023-08-20T09:35:41.547Z,3.00
2023-08-20T09:36:41.546Z,3.10
2023-08-20T09:37:41.529Z,2.80
2023-08-20T09:38:41.555Z,2.80
2023-08-20T09:39:41.559Z,2.50
2023-08-20T09:40:41.502Z,2.60
2023-08-20T09:41:41.499Z,2.70
2023-08-20T09:42:41.483Z,2.80
2023-08-20T09:43:41.506Z,3.00
2023-08-20T09:44:41.560Z,2.30
2023-08-20T09:45:41.540Z,2.50
2023-08-20T09:46:41.459Z,2.40
2023-08-20T09:47:41.460Z,2.70
2023-08-20T09:48:41.471Z,2.40
2023-08-20T09:49:41.466Z,2.50
2023-08-20T09:50:41.435Z,2.60
2023-08-20T09:51:41.434Z,2.60
2023-08-20T09:52:41.434Z,2.90
2023-08-20T09:53:41.433Z,2.70
2023-08-20T09:54:41.415Z,3.00
2023-08-20T09:55:41.420Z,3.20
2023-08-20T09:56:41.388Z,2.70
2023-08-20T09:57:43.458Z,2.70
2023-08-20T09:58:41.402Z,2.50
2023-08-20T09:59:41.368Z,2.60
2023-08-20T10:00:41.365Z,2.90
2023-08-20T10:01:41.381Z,3.00
2023-08-20T10:02:41.488Z,3.00
2023-08-20T10:03:41.362Z,2.60
2023-08-20T10:04:41.356Z,2.40
2023-08-20T10:05:41.351Z,2.40
2023-08-20T10:06:41.356Z,2.40
2023-08-20T10:07:41.397Z,2.60
2023-08-20T10:08:41.329Z,2.20
2023-08-20T10:09:44.113Z,2.50
2023-08-20T10:10:41.295Z,2.30
2023-08-20T10:11:41.315Z,2.10
2023-08-20T10:12:41.316Z,2.30
2023-08-20T10:13:41.283Z,2.50
2023-08-20T10:14:41.270Z,2.10
2023-08-20T10:15:43.927Z,2.10
2023-08-20T10:16:42.316Z,2.00
2023-08-20T10:17:41.349Z,2.00
2023-08-20T10:18:41.259Z,2.00
2023-08-20T10:19:41.258Z,1.90
2023-08-20T10:20:41.231Z,1.90
2023-08-20T10:21:41.236Z,2.00
2023-08-20T10:22:41.234Z,1.80
2023-08-20T10:23:41.218Z,1.80
2023-08-20T10:24:41.211Z,1.70
2023-08-20T10:25:41.218Z,1.90
2023-08-20T10:26:41.209Z,2.00
2023-08-20T10:27:41.186Z,2.00
2023-08-20T10:28:41.193Z,1.90
2023-08-20T10:29:41.284Z,2.10
2023-08-20T10:30:41.190Z,1.90
2023-08-20T10:31:41.207Z,2.20
2023-08-20T10:32:41.169Z,1.90
2023-08-20T10:33:41.146Z,1.70
2023-08-20T10:34:41.163Z,1.90
2023-08-20T10:35:41.196Z,1.80
2023-08-20T10:36:41.133Z,1.70
2023-08-20T10:37:41.127Z,1.80
2023-08-20T10:38:41.115Z,1.50
2023-08-20T10:39:41.129Z,1.40
2023-08-20T10:40:41.125Z,1.50
2023-08-20T10:41:41.105Z,1.80
2023-08-20T10:42:41.108Z,1.50
2023-08-20T10:43:41.091Z,1.50
2023-08-20T10:44:41.125Z,1.90
2023-08-20T10:45:41.103Z,1.50
2023-08-20T10:46:41.099Z,1.90
2023-08-20T10:47:41.091Z,2.10
2023-08-20T10:48:41.060Z,1.70
2023-08-20T10:49:41.077Z,1.80
2023-08-20T10:50:41.055Z,1.60
2023-08-20T10:51:41.042Z,1.60
2023-08-20T10:52:41.058Z,1.70
2023-08-20T10:53:41.048Z,1.80
2023-08-20T10:54:41.040Z,1.50
2023-08-20T10:55:41.023Z,1.50
2023-08-20T10:56:41.023Z,1.90
2023-08-20T10:57:41.007Z,1.70
2023-08-20T10:58:41.014Z,1.50
2023-08-20T10:59:41.003Z,1.60
2023-08-20T11:00:41.015Z,1.60
2023-08-20T11:01:40.997Z,3.00
2023-08-20T11:02:41.097Z,1.50
2023-08-20T11:03:41.313Z,1.50
2023-08-20T11:04:41.011Z,1.90
2023-08-20T11:05:40.961Z,1.60
2023-08-20T11:06:40.948Z,1.60
2023-08-20T11:07:40.984Z,2.00
2023-08-20T11:08:40.972Z,1.40
2023-08-20T11:09:40.933Z,1.50
2023-08-20T11:10:40.938Z,1.40
2023-08-20T11:11:40.934Z,2.00
2023-08-20T11:12:40.942Z,1.70
2023-08-20T11:13:40.925Z,1.70
2023-08-20T11:14:40.921Z,1.60
2023-08-20T11:15:40.924Z,1.90
2023-08-20T11:16:41.133Z,1.60
2023-08-20T11:17:40.912Z,1.60
2023-08-20T11:18:40.910Z,1.70
2023-08-20T11:19:40.912Z,1.60
2023-08-20T11:20:41.004Z,1.40
2023-08-20T11:21:40.868Z,1.60
2023-08-20T11:22:40.890Z,1.60
2023-08-20T11:23:40.890Z,1.50
2023-08-20T11:24:40.865Z,1.40
2023-08-20T11:25:41.855Z,1.40
2023-08-20T11:26:40.841Z,1.70
2023-08-20T11:27:40.845Z,1.60
2023-08-20T11:28:40.832Z,1.50
2023-08-20T11:29:40.822Z,1.60
2023-08-20T11:30:40.829Z,1.60
2023-08-20T11:31:40.807Z,1.40
2023-08-20T11:32:41.815Z,1.40
2023-08-20T11:33:40.781Z,1.80
2023-08-20T11:34:40.773Z,1.70
2023-08-20T11:35:40.764Z,1.50
2023-08-20T11:36:40.795Z,1.50
2023-08-20T11:37:40.751Z,1.60
2023-08-20T11:38:40.752Z,1.60
2023-08-20T11:39:40.742Z,1.60
2023-08-20T11:40:40.770Z,1.60
2023-08-20T11:41:40.747Z,1.40
2023-08-20T11:42:40.741Z,1.60
2023-08-20T11:43:40.709Z,1.40
2023-08-20T11:44:40.737Z,1.50
2023-08-20T11:45:40.720Z,1.90
2023-08-20T11:46:40.708Z,1.70
2023-08-20T11:47:40.710Z,1.70
2023-08-20T11:48:40.681Z,1.50
2023-08-20T11:49:40.678Z,1.60
2023-08-20T11:50:40.680Z,1.60
2023-08-20T11:51:41.496Z,1.70
2023-08-20T11:52:40.660Z,1.50
2023-08-20T11:53:40.628Z,1.60
2023-08-20T11:54:40.652Z,1.50
2023-08-20T11:55:40.638Z,1.40
2023-08-20T11:56:40.609Z,1.60
2023-08-20T11:57:40.605Z,1.60
2023-08-20T11:58:40.596Z,1.50
2023-08-20T11:59:40.816Z,1.40
2023-08-20T12:00:40.618Z,1.30
2023-08-20T12:01:40.577Z,1.40
2023-08-20T12:02:41.072Z,1.80
2023-08-20T12:03:40.692Z,1.50
2023-08-20T12:04:40.566Z,1.40
2023-08-20T12:05:40.565Z,1.60
2023-08-20T12:06:40.537Z,1.50
2023-08-20T12:07:40.528Z,1.50
2023-08-20T12:08:40.546Z,1.40
2023-08-20T12:09:40.539Z,1.50
2023-08-20T12:10:40.504Z,1.40
2023-08-20T12:11:40.514Z,1.40
2023-08-20T12:12:40.524Z,1.40
2023-08-20T12:13:40.516Z,1.30
2023-08-20T12:14:40.471Z,1.50
2023-08-20T12:15:40.466Z,1.30
2023-08-20T12:16:40.487Z,1.40
2023-08-20T12:17:40.497Z,1.40
2023-08-20T12:18:40.460Z,1.30
2023-08-20T12:19:40.432Z,1.40
2023-08-20T12:20:40.477Z,1.40
2023-08-20T12:21:40.407Z,1.20
2023-08-20T12:22:40.448Z,1.40
2023-08-20T12:23:40.423Z,1.40
2023-08-20T12:24:42.010Z,1.30
2023-08-20T12:25:40.384Z,1.40
2023-08-20T12:26:40.409Z,1.30
2023-08-20T12:27:40.423Z,1.40
2023-08-20T12:28:40.371Z,1.40
2023-08-20T12:29:40.361Z,1.40
2023-08-20T12:30:40.385Z,1.30
2023-08-20T12:31:40.363Z,1.40
2023-08-20T12:32:40.402Z,1.40
2023-08-20T12:33:40.323Z,1.50
2023-08-20T12:34:40.322Z,1.40
2023-08-20T12:35:40.316Z,1.30
2023-08-20T12:36:40.409Z,1.30
2023-08-20T12:37:40.309Z,1.30
2023-08-20T12:38:40.286Z,1.60
2023-08-20T12:39:40.268Z,1.60
2023-08-20T12:40:40.264Z,1.40
2023-08-20T12:41:40.327Z,1.20
2023-08-20T12:42:41.444Z,1.40
2023-08-20T12:43:40.258Z,1.80
2023-08-20T12:44:40.244Z,1.50
2023-08-20T12:45:40.237Z,1.20
2023-08-20T12:46:42.068Z,1.30
2023-08-20T12:47:40.371Z,1.40
2023-08-20T12:48:40.238Z,1.20
2023-08-20T12:49:40.252Z,1.40
2023-08-20T12:50:40.235Z,1.20
2023-08-20T12:51:40.195Z,1.10
2023-08-20T12:52:40.197Z,1.50
2023-08-20T12:53:40.683Z,1.50
2023-08-20T12:54:41.192Z,1.20
2023-08-20T12:55:40.355Z,1.30
2023-08-20T12:56:40.152Z,1.50
2023-08-20T12:57:40.134Z,1.60
2023-08-20T12:58:40.154Z,1.30
2023-08-20T12:59:40.141Z,1.30
2023-08-20T13:00:40.228Z,1.30
2023-08-20T13:01:40.146Z,1.30
2023-08-20T13:02:40.160Z,1.40
2023-08-20T13:03:41.123Z,1.60
2023-08-20T13:04:42.431Z,1.20